Hlavní strana
METAR-TAF:

METAR-TAF

Letiště :

Bamako, Mali

zeměpisná šířka: 12-32N, zeměpisná délka: 007-57W, výška: 380 m

Aktuální stav počasí

Zpráva byla vytvořena před 23 minutami, v 23:00 UTC
Východoseverovýchodní vítr 6 kt
Teplota 25°C
Vlhkost vzduchu 39%
Tlak 1015 hPa
Viditelnost 10 km a více
Žádná oblačnost pod 1500 m, nevyskytují se cumulonimby.

METAR: GABS 222300Z 07006KT CAVOK 25/10 Q1015 NOSIG

Čas: 23:23 (23:23 UTC)

Předpověď počasí

Zpráva byla vytvořena před 6 hodinami a 23 minutami, v 17:00 UTC
Předpověď platná od 22 v 18 UTC do 23 v 24 UTC
Východoseverovýchodní vítr 6 kt
Viditelnost 10 km a více
Žádná oblačnost pod 1500 m, nevyskytují se cumulonimby.

TAF: GABS 221700Z 2218/2324 06006KT CAVOK

Stav a předpovědi počasí z více než 4 000 letišť (zprávy METAR a TAF).

Červené a žluté tečky na mapě představují dostupné meteorologické stanice.

Když kurzor umístíte na tečku, zobrazí se název stanice.

Pak kliknutím zobrazíte stav a předpověď počasí.

Chcete-li změnit mapu, kliknutím na zelené tlačítko se znaménkem +mapu přiblížíte, kliknutím na zelené tlačítko se znaménkem – mapu oddálíte a kliknutím na zelené šipky přejdete na sousední mapy.


METAR-TAF: